Time;durP1;ratioP1;P1;durP2;ratioP2;P2;SDS_P1;SDS_P2;PMS_P1;PMS_P2;Temp;Humidity;BMP_temperature;BMP_pressure;BME280_temperature;BME280_humidity;BME280_pressure;Samples;Min_cycle;Max_cycle;Signal;HPM_P1;HPM_P2
2023/07/12 00:01:58;;;;;;;13.70;8.90;;;;;;;15.62;100.00;99705.95;109099;1256;74049;-66
2023/07/12 00:04:46;;;;;;;12.90;8.20;;;;;;;15.62;100.00;99711.27;109180;1256;66506;-66
2023/07/12 00:07:34;;;;;;;13.60;8.30;;;;;;;15.61;100.00;99710.64;109193;1256;73679;-65
2023/07/12 00:10:36;;;;;;;13.90;7.90;;;;;;;15.63;100.00;99719.16;109116;1256;57305;-65
2023/07/12 00:13:24;;;;;;;12.20;8.00;;;;;;;15.61;100.00;99715.98;109183;1257;58716;-65
2023/07/12 00:16:26;;;;;;;12.70;7.60;;;;;;;15.58;100.00;99711.11;109154;1256;74080;-65
2023/07/12 00:19:15;;;;;;;12.90;8.20;;;;;;;15.57;100.00;99703.23;108992;1256;67980;-66
2023/07/12 00:22:03;;;;;;;13.50;8.20;;;;;;;15.56;100.00;99700.97;109194;1256;73741;-64
2023/07/12 00:24:51;;;;;;;13.10;8.20;;;;;;;15.55;100.00;99699.70;109107;1256;60742;-64
2023/07/12 00:27:39;;;;;;;13.90;7.80;;;;;;;15.54;100.00;99695.29;108927;1256;215369;-66
2023/07/12 00:30:34;;;;;;;12.60;8.00;;;;;;;15.53;100.00;99697.70;109226;1256;73837;-65
2023/07/12 00:33:24;;;;;;;11.60;8.00;;;;;;;15.51;100.00;99701.64;109071;1256;68983;-65
2023/07/12 00:36:23;;;;;;;13.90;8.30;;;;;;;15.49;100.00;99708.27;109089;1256;72884;-68
2023/07/12 00:39:12;;;;;;;13.10;8.60;;;;;;;15.46;100.00;99710.36;108975;1256;59463;-66
2023/07/12 00:42:12;;;;;;;11.60;7.50;;;;;;;15.45;100.00;99721.41;109078;1262;61352;-65
2023/07/12 00:45:04;;;;;;;13.20;8.30;;;;;;;15.43;100.00;99721.30;109084;1256;74090;-65
2023/07/12 00:47:52;;;;;;;13.30;8.10;;;;;;;15.40;100.00;99703.84;109158;1256;68950;-66
2023/07/12 00:50:43;;;;;;;11.80;7.90;;;;;;;15.40;100.00;99686.90;108906;1260;72621;-66
2023/07/12 00:53:33;;;;;;;13.20;8.60;;;;;;;15.41;100.00;99675.91;108864;1260;60629;-64
2023/07/12 00:56:21;;;;;;;11.10;7.00;;;;;;;15.41;100.00;99669.77;108832;1260;58726;-65
2023/07/12 00:59:35;;;;;;;12.00;6.60;;;;;;;15.44;100.00;99660.08;108933;1261;72893;-65
2023/07/12 01:02:23;;;;;;;11.70;6.00;;;;;;;15.47;100.00;99645.60;108949;1260;66723;-67
2023/07/12 01:05:13;;;;;;;11.20;6.70;;;;;;;15.50;100.00;99642.63;108943;1265;73810;-67
2023/07/12 01:08:03;;;;;;;10.80;6.80;;;;;;;15.50;100.00;99634.70;108840;1260;59751;-66
2023/07/12 01:10:51;;;;;;;9.90;6.20;;;;;;;15.52;100.00;99623.46;108803;1261;61332;-66
2023/07/12 01:13:44;;;;;;;11.50;5.90;;;;;;;15.51;100.00;99615.69;108972;1265;71804;-68
2023/07/12 01:16:32;;;;;;;9.80;5.50;;;;;;;15.52;100.00;99605.77;108773;1262;66879;-68
2023/07/12 01:19:20;;;;;;;13.40;6.30;;;;;;;15.54;100.00;99597.45;108760;1263;73794;-67
2023/07/12 01:22:08;;;;;;;11.50;6.30;;;;;;;15.55;100.00;99595.45;108979;1259;59671;-65
2023/07/12 01:24:56;;;;;;;10.00;5.90;;;;;;;15.56;100.00;99593.54;108918;1259;61145;-65
2023/07/12 01:27:44;;;;;;;12.00;6.20;;;;;;;15.60;100.00;99590.81;109025;1261;72759;-68
2023/07/12 01:30:34;;;;;;;10.60;5.40;;;;;;;15.62;100.00;99591.66;108919;1259;67956;-65
2023/07/12 01:33:24;;;;;;;10.30;5.60;;;;;;;15.65;100.00;99587.20;108940;1259;71256;-66
2023/07/12 01:36:12;;;;;;;9.90;5.70;;;;;;;15.67;100.00;99580.36;109005;1259;59640;-66
2023/07/12 01:39:03;;;;;;;10.10;5.20;;;;;;;15.72;100.00;99583.62;109015;1259;60054;-68
2023/07/12 01:41:51;;;;;;;9.50;5.00;;;;;;;15.75;100.00;99582.94;108933;1259;73941;-66
2023/07/12 01:44:39;;;;;;;9.10;5.20;;;;;;;15.78;100.00;99584.22;109025;1259;66439;-68
2023/07/12 01:47:27;;;;;;;10.20;5.40;;;;;;;15.80;100.00;99584.35;109069;1256;72652;-68
2023/07/12 01:50:15;;;;;;;9.50;5.60;;;;;;;15.81;100.00;99586.02;109217;1256;58935;-68
2023/07/12 01:53:03;;;;;;;9.40;5.60;;;;;;;15.83;100.00;99587.85;109174;1256;59120;-69
2023/07/12 01:55:51;;;;;;;10.40;6.10;;;;;;;15.81;100.00;99584.04;109244;1256;72935;-68
2023/07/12 01:58:39;;;;;;;10.10;4.80;;;;;;;15.78;100.00;99587.60;109117;1256;69118;-67
2023/07/12 02:01:27;;;;;;;10.10;6.00;;;;;;;15.79;100.00;99591.86;109122;1256;73791;-65
2023/07/12 02:04:15;;;;;;;11.20;6.20;;;;;;;15.77;100.00;99593.23;109229;1257;60599;-64
2023/07/12 02:07:05;;;;;;;10.20;6.00;;;;;;;15.77;100.00;99603.85;109093;1262;60225;-64
2023/07/12 02:10:14;;;;;;;9.60;5.20;;;;;;;15.76;100.00;99620.36;109091;1257;74166;-67
2023/07/12 02:13:05;;;;;;;9.00;5.40;;;;;;;15.73;100.00;99622.99;109125;1256;67501;-69
2023/07/12 02:15:53;;;;;;;9.40;5.00;;;;;;;15.69;100.00;99618.07;109205;1256;72581;-68
2023/07/12 02:18:41;;;;;;;9.30;5.30;;;;;;;15.64;100.00;99618.07;109210;1256;60510;-68
2023/07/12 02:21:29;;;;;;;10.40;5.70;;;;;;;15.60;100.00;99620.27;109079;1256;60063;-67
2023/07/12 02:24:17;;;;;;;9.70;5.40;;;;;;;15.56;100.00;99624.48;109066;1262;73172;-66
2023/07/12 02:27:06;;;;;;;11.40;6.40;;;;;;;15.53;100.00;99623.21;109135;1256;67781;-66
2023/07/12 02:29:55;;;;;;;11.50;5.60;;;;;;;15.49;100.00;99619.80;109137;1256;73601;-66
2023/07/12 02:32:46;;;;;;;10.80;6.10;;;;;;;15.46;100.00;99610.98;109084;1256;58109;-65
2023/07/12 02:35:34;;;;;;;10.70;6.80;;;;;;;15.44;100.00;99592.48;109234;1256;59151;-67
2023/07/12 02:38:22;;;;;;;12.50;7.60;;;;;;;15.45;100.00;99580.98;109115;1257;73032;-68
2023/07/12 02:41:11;;;;;;;12.50;6.70;;;;;;;15.45;100.00;99570.48;109096;1257;66606;-72
2023/07/12 02:43:59;;;;;;;12.50;7.10;;;;;;;15.47;100.00;99566.70;109028;1256;73219;-69
2023/07/12 02:46:47;;;;;;;11.50;6.90;;;;;;;15.49;100.00;99560.06;109223;1257;58138;-70
2023/07/12 02:49:37;;;;;;;11.80;7.10;;;;;;;15.51;100.00;99554.17;109140;1256;60093;-68
2023/07/12 02:52:25;;;;;;;13.40;7.10;;;;;;;15.52;100.00;99551.96;109101;1256;72982;-69
2023/07/12 02:55:13;;;;;;;11.10;6.80;;;;;;;15.52;100.00;99544.57;109121;1260;67641;-67
2023/07/12 02:58:02;;;;;;;11.30;6.10;;;;;;;15.56;100.00;99539.17;109076;1262;72970;-68
2023/07/12 03:00:57;;;;;;;9.90;5.60;;;;;;;15.62;100.00;99528.16;109047;1257;59989;-67
2023/07/12 03:03:48;;;;;;;9.60;5.80;;;;;;;15.70;100.00;99527.73;109063;1262;60425;-68
2023/07/12 03:06:36;;;;;;;11.50;6.20;;;;;;;15.76;100.00;99520.94;109043;1257;73072;-67
2023/07/12 03:09:24;;;;;;;9.90;5.60;;;;;;;15.84;100.00;99516.71;109123;1260;67910;-65
2023/07/12 03:12:12;;;;;;;11.30;5.90;;;;;;;15.95;100.00;99518.77;109049;1257;72776;-66
2023/07/12 03:15:00;;;;;;;10.20;5.30;;;;;;;16.04;100.00;99508.50;109230;1257;59559;-68
2023/07/12 03:17:49;;;;;;;9.90;5.70;;;;;;;16.09;100.00;99509.30;109121;1256;60754;-63
2023/07/12 03:20:37;;;;;;;9.30;4.80;;;;;;;16.13;100.00;99506.91;109114;1256;70768;-62
2023/07/12 03:23:25;;;;;;;10.00;4.70;;;;;;;16.19;100.00;99507.37;109150;1256;66445;-64
2023/07/12 03:26:13;;;;;;;9.50;4.70;;;;;;;16.26;99.83;99509.80;109100;1256;71978;-64
2023/07/12 03:29:04;;;;;;;10.20;5.20;;;;;;;16.31;99.47;99502.82;109169;1258;58658;-64
2023/07/12 03:31:52;;;;;;;11.20;5.80;;;;;;;16.35;99.43;99495.60;109114;1256;60119;-65
2023/07/12 03:34:39;;;;;;;11.10;5.50;;;;;;;16.35;99.28;99491.61;109124;1257;74021;-64
2023/07/12 03:37:27;;;;;;;10.60;5.30;;;;;;;16.36;99.31;99489.43;109064;1257;67894;-62
2023/07/12 03:40:16;;;;;;;9.50;5.50;;;;;;;16.39;99.29;99481.00;109220;1256;73512;-63
2023/07/12 03:43:04;;;;;;;10.00;5.20;;;;;;;16.41;99.06;99468.41;109240;1256;59562;-65
2023/07/12 03:45:53;;;;;;;11.00;6.20;;;;;;;16.42;99.13;99463.27;109222;1258;58924;-63
2023/07/12 03:48:43;;;;;;;10.30;6.10;;;;;;;16.46;99.01;99462.84;109182;1257;71651;-63
2023/07/12 03:51:31;;;;;;;11.10;5.30;;;;;;;16.49;98.98;99460.55;109105;1257;66809;-62
2023/07/12 03:54:21;;;;;;;9.30;5.00;;;;;;;16.53;98.79;99461.06;109102;1256;72500;-65
2023/07/12 03:57:10;;;;;;;9.90;5.10;;;;;;;16.56;98.53;99474.61;109092;1256;58354;-67
2023/07/12 04:00:00;;;;;;;9.10;4.90;;;;;;;16.60;98.22;99482.77;109024;1260;60359;-67
2023/07/12 04:02:59;;;;;;;9.90;5.30;;;;;;;16.66;98.03;99480.16;109028;1256;73927;-67
2023/07/12 04:05:51;;;;;;;9.80;5.30;;;;;;;16.70;97.75;99479.70;109068;1257;66711;-66
2023/07/12 04:08:40;;;;;;;9.70;5.40;;;;;;;16.77;97.43;99481.22;109160;1257;72635;-67
2023/07/12 04:11:31;;;;;;;10.20;5.60;;;;;;;16.82;97.24;99476.17;108962;1256;57317;-64
2023/07/12 04:14:19;;;;;;;10.10;5.50;;;;;;;16.90;96.75;99466.96;109140;1258;61072;-64
2023/07/12 04:17:09;;;;;;;10.70;5.70;;;;;;;16.99;95.70;99468.58;109219;1257;73763;-66
2023/07/12 04:20:01;;;;;;;8.50;4.80;;;;;;;17.08;94.82;99461.10;109176;1256;68992;-63
2023/07/12 04:23:00;;;;;;;9.90;5.00;;;;;;;17.20;93.62;99460.56;108992;1257;72772;-65
2023/07/12 04:25:59;;;;;;;8.90;4.50;;;;;;;17.34;92.75;99465.15;109096;1257;59618;-63
2023/07/12 04:28:54;;;;;;;12.20;5.60;;;;;;;17.47;90.77;99462.84;109122;1257;58905;-64
2023/07/12 04:31:43;;;;;;;11.10;5.60;;;;;;;17.63;89.81;99462.45;109112;1257;73050;-68
2023/07/12 04:34:30;;;;;;;10.20;5.40;;;;;;;17.82;89.37;99458.84;109070;1257;68031;-63
2023/07/12 04:37:22;;;;;;;9.10;4.90;;;;;;;18.04;88.16;99460.36;109066;1257;72751;-64
2023/07/12 04:40:10;;;;;;;10.40;4.80;;;;;;;18.28;86.85;99457.20;109170;1258;59347;-66
2023/07/12 04:43:01;;;;;;;10.70;5.60;;;;;;;18.57;84.69;99451.95;109132;1257;60739;-65
2023/07/12 04:45:54;;;;;;;9.40;5.60;;;;;;;18.91;82.76;99442.23;109075;1256;72968;-68
2023/07/12 04:48:48;;;;;;;10.40;5.80;;;;;;;19.38;81.47;99434.68;109034;1257;66732;-65
2023/07/12 04:51:37;;;;;;;9.50;4.80;;;;;;;19.92;76.63;99419.06;109033;1256;72667;-64
2023/07/12 04:54:25;;;;;;;9.50;4.70;;;;;;;20.51;75.82;99418.58;108918;1256;59595;-66
2023/07/12 04:57:13;;;;;;;10.20;4.80;;;;;;;21.09;72.90;99416.55;108891;1257;61853;-66
2023/07/12 05:00:02;;;;;;;11.10;5.40;;;;;;;21.63;69.61;99420.26;109194;1257;71601;-67
2023/07/12 05:02:51;;;;;;;8.30;4.20;;;;;;;22.08;68.48;99417.29;109045;1257;68980;-66
2023/07/12 05:05:39;;;;;;;9.20;4.30;;;;;;;22.61;65.12;99416.70;109167;1256;73489;-67
2023/07/12 05:08:27;;;;;;;10.30;4.20;;;;;;;23.04;63.63;99410.85;109186;1257;57890;-66
2023/07/12 05:11:14;;;;;;;8.70;4.00;;;;;;;23.58;60.48;99416.50;109027;1256;58960;-67
2023/07/12 05:14:02;;;;;;;8.60;4.00;;;;;;;23.94;58.09;99410.09;109021;1257;72931;-68
2023/07/12 05:16:51;;;;;;;8.90;4.00;;;;;;;24.28;56.86;99399.97;108948;1257;66441;-65
2023/07/12 05:19:38;;;;;;;8.90;4.50;;;;;;;24.72;55.60;99405.85;109091;1257;73710;-65
2023/07/12 05:22:26;;;;;;;8.40;4.20;;;;;;;25.10;53.61;99409.32;109026;1257;57361;-64
2023/07/12 05:25:14;;;;;;;9.40;4.10;;;;;;;25.21;51.78;99412.17;109106;1257;59278;-65
2023/07/12 05:28:03;;;;;;;9.20;4.30;;;;;;;25.07;51.37;99412.61;109088;1257;72913;-62
2023/07/12 05:30:51;;;;;;;9.30;4.20;;;;;;;25.08;51.94;99416.83;109106;1257;67914;-65
2023/07/12 05:33:45;;;;;;;8.60;4.20;;;;;;;25.38;52.21;99410.90;109022;1257;72701;-66
2023/07/12 05:36:33;;;;;;;8.50;4.40;;;;;;;25.67;50.83;99409.29;109007;1257;58991;-65
2023/07/12 05:39:22;;;;;;;9.40;3.90;;;;;;;26.12;50.72;99396.15;108985;1257;61248;-63
2023/07/12 05:42:11;;;;;;;10.20;3.60;;;;;;;26.60;48.07;99389.84;109096;1257;73170;-64
2023/07/12 05:44:59;;;;;;;9.00;3.70;;;;;;;27.14;46.98;99384.30;109074;1257;68232;-63
2023/07/12 05:47:48;;;;;;;8.90;4.00;;;;;;;27.47;44.63;99378.52;108990;1257;72922;-69
2023/07/12 05:50:36;;;;;;;7.70;3.90;;;;;;;27.82;44.54;99364.31;108946;1257;57715;-65
2023/07/12 05:53:25;;;;;;;7.80;3.80;;;;;;;28.25;43.02;99347.98;108971;1257;59617;-66
2023/07/12 05:56:13;;;;;;;8.80;3.90;;;;;;;28.55;42.51;99346.60;108997;1257;73253;-67
2023/07/12 05:59:02;;;;;;;7.00;3.00;;;;;;;28.79;41.49;99349.38;108982;1257;67783;-69
2023/07/12 06:01:50;;;;;;;10.70;3.40;;;;;;;29.00;41.06;99345.70;109011;1257;72757;-65
2023/07/12 06:04:37;;;;;;;8.10;3.20;;;;;;;29.23;40.02;99342.33;109016;1257;57773;-66
2023/07/12 06:07:26;;;;;;;8.00;3.70;;;;;;;29.27;38.62;99338.85;109087;1257;60380;-63
2023/07/12 06:10:15;;;;;;;8.10;3.50;;;;;;;29.45;39.89;99341.64;109120;1257;73034;-71
2023/07/12 06:13:04;;;;;;;7.20;3.10;;;;;;;30.51;38.40;99332.98;109043;1257;66264;-76
2023/07/12 06:15:51;;;;;;;7.80;3.20;;;;;;;31.49;36.30;99336.70;109103;1257;73561;-72
2023/07/12 06:18:43;;;;;;;7.50;3.50;;;;;;;32.08;34.64;99330.52;109115;1257;57213;-73
2023/07/12 06:21:31;;;;;;;7.90;3.00;;;;;;;32.35;33.77;99324.98;109104;1257;59680;-68
2023/07/12 06:24:22;;;;;;;10.20;3.20;;;;;;;32.87;32.56;99326.62;109027;1257;71845;-69
2023/07/12 06:27:10;;;;;;;7.50;3.00;;;;;;;33.44;31.76;99319.81;109085;1256;67643;-71
2023/07/12 06:29:58;;;;;;;7.30;2.90;;;;;;;33.85;30.68;99318.40;109122;1256;71073;-66
2023/07/12 06:32:46;;;;;;;9.50;2.90;;;;;;;34.31;30.31;99308.34;109043;1257;57395;-68
2023/07/12 06:35:35;;;;;;;8.70;3.00;;;;;;;34.85;29.41;99303.43;108982;1256;60290;-69
2023/07/12 06:38:23;;;;;;;7.80;2.50;;;;;;;35.27;28.54;99309.02;109108;1256;71869;-68
2023/07/12 06:41:11;;;;;;;7.40;2.60;;;;;;;35.43;28.20;99304.20;109082;1256;69136;-69
2023/07/12 06:43:59;;;;;;;8.00;2.40;;;;;;;35.21;27.99;99298.99;109077;1257;73629;-68
2023/07/12 06:46:47;;;;;;;7.20;2.60;;;;;;;35.05;28.51;99294.01;109079;1256;58686;-69
2023/07/12 06:49:35;;;;;;;8.70;2.50;;;;;;;34.85;28.32;99294.09;109012;1260;61048;-70
2023/07/12 06:52:22;;;;;;;7.50;2.90;;;;;;;34.55;28.18;99291.63;109123;1256;72767;-70
2023/07/12 06:55:11;;;;;;;8.70;2.40;;;;;;;34.31;28.00;99285.55;109149;1256;67010;-69
2023/07/12 06:57:59;;;;;;;6.30;2.40;;;;;;;33.97;28.28;99285.70;109081;1256;72488;-71
2023/07/12 07:00:47;;;;;;;9.80;3.00;;;;;;;33.62;28.80;99282.10;109088;1256;57716;-72
2023/07/12 07:03:36;;;;;;;8.30;2.70;;;;;;;33.59;29.68;99280.30;109035;1258;60273;-69
2023/07/12 07:06:24;;;;;;;9.30;2.70;;;;;;;33.81;29.52;99276.34;109201;1256;73990;-71
2023/07/12 07:09:12;;;;;;;6.80;2.60;;;;;;;33.97;28.87;99273.14;109212;1256;66758;-69
2023/07/12 07:12:00;;;;;;;10.40;2.60;;;;;;;34.17;28.19;99271.28;109187;1256;71102;-71
2023/07/12 07:14:53;;;;;;;8.80;2.80;;;;;;;34.22;27.84;99274.70;109019;1256;57596;-70
2023/07/12 07:17:40;;;;;;;6.50;2.40;;;;;;;34.38;27.72;99270.33;109112;1256;60698;-71
2023/07/12 07:20:28;;;;;;;7.30;2.60;;;;;;;34.02;27.40;99265.84;109109;1256;73539;-70
2023/07/12 07:23:16;;;;;;;15.50;2.80;;;;;;;33.67;27.65;99256.52;109254;1256;66757;-69
2023/07/12 07:26:09;;;;;;;6.90;2.70;;;;;;;33.29;27.54;99260.08;109203;1256;73149;-67
2023/07/12 07:28:58;;;;;;;8.50;2.70;;;;;;;33.14;28.14;99257.19;109125;1256;57826;-70
2023/07/12 07:31:46;;;;;;;9.50;2.90;;;;;;;33.17;28.56;99251.30;109034;1257;60337;-70
2023/07/12 07:34:34;;;;;;;8.90;3.00;;;;;;;33.58;28.78;99236.52;109026;1256;71785;-68
2023/07/12 07:37:22;;;;;;;10.20;3.20;;;;;;;33.93;28.21;99227.98;109094;1256;66397;-71
2023/07/12 07:40:10;;;;;;;8.20;2.70;;;;;;;34.01;27.97;99217.01;108977;1256;72530;-70
2023/07/12 07:43:01;;;;;;;7.20;2.60;;;;;;;34.03;27.61;99205.23;109173;1256;57824;-68
2023/07/12 07:46:02;;;;;;;8.40;2.80;;;;;;;33.73;28.25;99190.61;109083;1256;60184;-70
2023/07/12 07:49:08;;;;;;;9.20;2.90;;;;;;;33.69;27.83;99183.02;109066;1256;72961;-71
2023/07/12 07:51:57;;;;;;;9.30;3.00;;;;;;;33.60;27.98;99181.84;109108;1259;67665;-73
2023/07/12 07:54:45;;;;;;;10.00;3.10;;;;;;;33.77;27.72;99181.65;109086;1256;72745;-74
2023/07/12 07:57:33;;;;;;;25.20;4.70;;;;;;;33.76;27.66;99188.60;108957;1256;57762;-76
2023/07/12 08:00:26;;;;;;;8.60;2.60;;;;;;;33.86;27.47;99190.39;109066;1256;60884;-73
2023/07/12 08:03:18;;;;;;;8.80;2.70;;;;;;;33.49;27.28;99191.50;109093;1257;72913;-69
2023/07/12 08:06:07;;;;;;;9.30;3.00;;;;;;;33.37;27.98;99196.21;109174;1256;68763;-68
2023/07/12 08:08:55;;;;;;;7.90;2.60;;;;;;;33.17;28.60;99202.73;109146;1256;72511;-70
2023/07/12 08:11:42;;;;;;;9.00;3.00;;;;;;;32.93;29.13;99207.41;108981;1257;59269;-72
2023/07/12 08:14:30;;;;;;;9.20;2.90;;;;;;;32.83;29.44;99208.86;109135;1256;58947;-70
2023/07/12 08:17:17;;;;;;;8.40;3.10;;;;;;;32.91;29.26;99197.50;109003;1256;73959;-68
2023/07/12 08:20:07;;;;;;;8.90;3.00;;;;;;;33.05;29.10;99195.34;109118;1257;67901;-72
2023/07/12 08:22:55;;;;;;;10.00;3.10;;;;;;;33.02;29.24;99188.36;109107;1256;73269;-68
2023/07/12 08:25:43;;;;;;;8.30;3.50;;;;;;;33.46;29.40;99186.79;109147;1256;57328;-70
2023/07/12 08:28:33;;;;;;;14.60;4.10;;;;;;;33.92;28.59;99187.17;109200;1256;60449;-70
2023/07/12 08:31:23;;;;;;;9.60;3.10;;;;;;;34.04;28.28;99188.39;109066;1256;72869;-73
2023/07/12 08:34:11;;;;;;;8.30;3.10;;;;;;;34.19;28.06;99187.18;109096;1257;66705;-70
2023/07/12 08:37:02;;;;;;;8.00;3.20;;;;;;;34.40;28.03;99194.16;109161;1256;74157;-71
2023/07/12 08:39:51;;;;;;;8.50;3.00;;;;;;;34.38;27.42;99193.61;109078;1256;58020;-69
2023/07/12 08:42:41;;;;;;;7.20;2.90;;;;;;;33.98;26.98;99184.98;108968;1256;58819;-68
2023/07/12 08:45:32;;;;;;;8.30;2.70;;;;;;;34.10;27.10;99170.85;109160;1256;72918;-69
2023/07/12 08:48:25;;;;;;;7.90;2.60;;;;;;;34.35;26.64;99174.54;109106;1256;69260;-68
2023/07/12 08:51:37;;;;;;;13.70;3.60;;;;;;;34.74;26.60;99178.21;109051;1256;74032;-67
2023/07/12 08:54:34;;;;;;;13.10;4.30;;;;;;;34.72;26.67;99177.91;108990;1256;57644;-72
2023/07/12 08:57:25;;;;;;;8.90;3.60;;;;;;;34.87;26.64;99166.67;109036;1256;60031;-71
2023/07/12 09:00:27;;;;;;;8.80;3.00;;;;;;;35.21;26.19;99146.35;109017;1256;71885;-69
2023/07/12 09:03:16;;;;;;;10.10;3.30;;;;;;;35.74;25.71;99134.96;109098;1256;67680;-68
2023/07/12 09:06:15;;;;;;;7.70;3.10;;;;;;;36.20;24.73;99148.41;109177;1256;72908;-68
2023/07/12 09:09:06;;;;;;;9.90;3.10;;;;;;;36.52;23.95;99143.15;109017;1256;57320;-69
2023/07/12 09:11:57;;;;;;;8.50;3.00;;;;;;;36.27;23.57;99143.27;109043;1256;58787;-67
2023/07/12 09:14:45;;;;;;;7.30;2.60;;;;;;;35.94;23.39;99133.84;109205;1256;74107;-71
2023/07/12 09:17:44;;;;;;;7.90;2.70;;;;;;;35.58;23.66;99138.95;109190;1256;67924;-70
2023/07/12 09:20:37;;;;;;;7.80;3.00;;;;;;;35.72;24.37;99123.94;109073;1256;72719;-69
2023/07/12 09:23:36;;;;;;;8.20;2.80;;;;;;;36.09;23.49;99113.40;109005;1256;58680;-70
2023/07/12 09:26:31;;;;;;;7.60;2.70;;;;;;;35.35;24.70;99098.41;109047;1256;60492;-71
2023/07/12 09:29:27;;;;;;;32.90;5.00;;;;;;;35.32;24.88;99092.21;109153;1256;72807;-69
2023/07/12 09:32:36;;;;;;;9.00;2.70;;;;;;;34.98;24.61;99094.69;109057;1256;66298;-69
2023/07/12 09:35:47;;;;;;;6.70;2.50;;;;;;;34.93;24.60;99090.54;109047;1256;73692;-70
2023/07/12 09:38:37;;;;;;;8.30;2.50;;;;;;;35.37;24.92;99083.77;109073;1256;57695;-70
2023/07/12 09:41:28;;;;;;;9.90;2.80;;;;;;;35.73;24.19;99079.15;109045;1256;58718;-68
2023/07/12 09:44:17;;;;;;;10.20;2.50;;;;;;;36.01;23.58;99075.10;109001;1256;71818;-68
2023/07/12 09:47:48;;;;;;;9.80;2.70;;;;;;;36.59;22.78;99064.20;109082;1256;68170;-70
2023/07/12 09:51:35;;;;;;;8.40;3.30;;;;;;;35.96;23.41;99047.54;109027;1256;73394;-70
2023/07/12 09:54:50;;;;;;;7.30;2.60;;;;;;;34.96;24.25;99050.22;109068;1256;59000;-71
2023/07/12 09:57:56;;;;;;;8.10;2.50;;;;;;;34.15;24.70;99057.80;109176;1256;60163;-72
2023/07/12 10:01:12;;;;;;;7.90;2.50;;;;;;;33.43;25.67;99048.71;109111;1256;73053;-70
2023/07/12 10:04:19;;;;;;;7.70;3.10;;;;;;;32.98;26.73;99038.98;109202;1256;67888;-70
2023/07/12 10:07:38;;;;;;;13.20;3.00;;;;;;;32.94;27.31;99028.43;109021;1256;73770;-70
2023/07/12 10:11:12;;;;;;;7.10;3.00;;;;;;;33.15;26.87;99029.56;109108;1256;57361;-68
2023/07/12 10:14:08;;;;;;;7.90;2.40;;;;;;;32.66;27.52;99020.30;109217;1256;59485;-69
2023/07/12 10:16:58;;;;;;;6.90;2.60;;;;;;;31.97;27.61;99024.92;109159;1256;71802;-69
2023/07/12 10:19:53;;;;;;;8.40;2.60;;;;;;;31.33;28.36;99043.73;108957;1256;66408;-70
2023/07/12 10:22:45;;;;;;;8.90;2.70;;;;;;;30.66;28.99;99040.23;109076;1256;72548;-71
2023/07/12 10:25:37;;;;;;;7.50;2.60;;;;;;;30.15;29.74;99038.64;109114;1256;57987;-70
2023/07/12 10:28:47;;;;;;;8.50;3.20;;;;;;;30.06;30.38;99037.76;109046;1256;58865;-70
2023/07/12 10:31:49;;;;;;;11.20;3.30;;;;;;;30.01;30.66;99038.14;109161;1256;72702;-71
2023/07/12 10:34:50;;;;;;;8.70;2.80;;;;;;;29.77;31.14;99041.30;109071;1256;67908;-69
2023/07/12 10:37:53;;;;;;;9.50;2.80;;;;;;;29.48;31.61;99041.17;109151;1256;72811;-72
2023/07/12 10:40:54;;;;;;;10.10;2.70;;;;;;;29.15;32.32;99036.52;109037;1256;57989;-69
2023/07/12 10:43:57;;;;;;;8.10;3.10;;;;;;;28.66;32.67;99039.77;109127;1256;58756;-73
2023/07/12 10:47:13;;;;;;;7.50;2.80;;;;;;;28.11;33.40;99046.14;108999;1256;73766;-71
2023/07/12 10:50:07;;;;;;;8.90;3.00;;;;;;;27.73;34.17;99051.69;109064;1257;66781;-70
2023/07/12 10:53:24;;;;;;;7.60;3.20;;;;;;;27.54;34.88;99052.08;109042;1256;73512;-72
2023/07/12 10:56:49;;;;;;;9.20;3.40;;;;;;;27.23;35.68;99056.98;109048;1256;57665;-69
2023/07/12 10:59:45;;;;;;;7.00;3.00;;;;;;;26.93;36.11;99065.69;109129;1256;60156;-70
2023/07/12 11:02:59;;;;;;;9.30;3.20;;;;;;;26.68;36.60;99056.35;109115;1256;71801;-72
2023/07/12 11:06:20;;;;;;;7.80;3.10;;;;;;;26.39;36.95;99054.04;109204;1256;68626;-73
2023/07/12 11:09:10;;;;;;;8.90;3.30;;;;;;;26.05;37.90;99068.39;109234;1256;72877;-70
2023/07/12 11:12:07;;;;;;;9.30;3.00;;;;;;;25.79;38.39;99060.20;109054;1256;57327;-72
2023/07/12 11:15:38;;;;;;;7.30;3.40;;;;;;;25.59;39.36;99058.48;109125;1256;59166;-73
2023/07/12 11:18:36;;;;;;;11.20;3.40;;;;;;;25.26;40.27;99070.92;108642;1265;73190;-72
2023/07/12 11:22:20;;;;;;;8.20;3.00;;;;;;;25.04;40.91;99073.93;108618;1265;68005;-72
2023/07/12 11:25:48;;;;;;;8.30;3.40;;;;;;;24.86;41.77;99075.68;108164;1271;71424;-71
2023/07/12 11:28:43;;;;;;;10.50;3.40;;;;;;;24.70;42.89;99074.84;108333;1271;57492;-71
2023/07/12 11:31:32;;;;;;;7.90;3.50;;;;;;;24.64;43.17;99074.85;108103;1270;60339;-71
2023/07/12 11:34:24;;;;;;;8.70;3.50;;;;;;;24.65;43.55;99070.58;108067;1271;73307;-75
2023/07/12 11:37:30;;;;;;;10.60;3.80;;;;;;;24.67;43.76;99069.43;107968;1271;68665;-73
2023/07/12 11:40:29;;;;;;;9.50;3.70;;;;;;;24.70;44.14;99076.72;108060;1271;72505;-70
2023/07/12 11:43:34;;;;;;;7.90;3.10;;;;;;;24.75;44.44;99069.23;108007;1271;57947;-72
2023/07/12 11:46:29;;;;;;;9.40;3.60;;;;;;;24.78;44.55;99066.16;108146;1271;58985;-71
2023/07/12 11:49:26;;;;;;;8.20;3.50;;;;;;;24.79;44.73;99067.00;107940;1271;73273;-73
2023/07/12 11:52:15;;;;;;;9.30;3.00;;;;;;;24.85;44.93;99063.90;108100;1270;66941;-72
2023/07/12 11:55:18;;;;;;;8.90;3.30;;;;;;;24.87;45.62;99060.31;108052;1264;71203;-74
2023/07/12 11:58:20;;;;;;;8.80;3.80;;;;;;;24.84;46.49;99053.39;108522;1264;57748;-71
2023/07/12 12:01:15;;;;;;;10.00;3.50;;;;;;;24.71;47.50;99049.99;108901;1256;60069;-70
2023/07/12 12:04:05;;;;;;;11.80;3.60;;;;;;;24.51;48.41;99044.07;109114;1256;74316;-71
2023/07/12 12:07:02;;;;;;;11.50;3.80;;;;;;;24.33;49.40;99041.50;108902;1256;66536;-66
2023/07/12 12:09:51;;;;;;;9.40;3.70;;;;;;;24.16;50.17;99027.05;109044;1256;72831;-70
2023/07/12 12:12:41;;;;;;;11.00;3.80;;;;;;;23.99;51.09;99020.70;109034;1257;57698;-73
2023/07/12 12:15:30;;;;;;;10.20;4.20;;;;;;;23.73;52.49;99000.50;108927;1258;59218;-69
2023/07/12 12:18:22;;;;;;;9.30;4.20;;;;;;;23.66;53.67;99012.50;108816;1258;72512;-71
2023/07/12 12:21:17;;;;;;;12.20;4.40;;;;;;;23.55;55.43;99008.61;109004;1257;68923;-69
2023/07/12 12:24:18;;;;;;;11.20;4.60;;;;;;;23.43;57.71;99009.17;108949;1257;73739;-68
2023/07/12 12:27:27;;;;;;;12.50;4.00;;;;;;;23.39;59.12;98992.94;108717;1257;284798;-71
2023/07/12 12:30:15;;;;;;;9.70;4.40;;;;;;;23.38;60.02;98983.45;108934;1262;58895;-73
2023/07/12 12:33:04;;;;;;;9.00;4.40;;;;;;;23.38;61.24;98980.57;109016;1257;72834;-70
2023/07/12 12:36:21;;;;;;;11.10;4.30;;;;;;;23.36;61.45;98982.48;109086;1257;67809;-69
2023/07/12 12:39:08;;;;;;;10.40;4.00;;;;;;;23.37;61.74;98969.31;108895;1257;71675;-68
2023/07/12 12:42:03;;;;;;;9.60;5.00;;;;;;;23.25;61.16;98961.17;109035;1257;57384;-71
2023/07/12 12:44:51;;;;;;;10.50;4.60;;;;;;;23.12;61.94;98964.64;108982;1257;59056;-72
2023/07/12 12:47:39;;;;;;;14.10;5.40;;;;;;;22.98;62.81;98971.44;108987;1257;73040;-69
2023/07/12 12:50:29;;;;;;;13.70;4.60;;;;;;;22.87;63.52;98971.14;109007;1257;67130;-72
2023/07/12 12:53:20;;;;;;;11.20;4.30;;;;;;;22.77;64.25;98982.17;109035;1257;72790;-70
2023/07/12 12:56:12;;;;;;;11.70;4.70;;;;;;;22.61;64.51;98995.04;108948;1257;58799;-72
2023/07/12 12:59:03;;;;;;;9.30;4.60;;;;;;;22.42;65.40;99015.69;109069;1257;60119;-68
2023/07/12 13:01:54;;;;;;;10.40;4.60;;;;;;;22.24;66.76;99013.39;108912;1258;72108;-71
2023/07/12 13:04:46;;;;;;;10.50;4.50;;;;;;;22.05;68.00;99030.54;108993;1257;67949;-73
2023/07/12 13:07:50;;;;;;;13.60;5.00;;;;;;;21.78;70.07;99044.88;109101;1257;71717;-71
2023/07/12 13:10:58;;;;;;;10.50;5.40;;;;;;;21.60;72.00;99048.35;108967;1257;57672;-72
2023/07/12 13:13:49;;;;;;;13.10;5.60;;;;;;;21.41;73.74;99092.67;109062;1257;58773;-70
2023/07/12 13:16:41;;;;;;;11.70;5.70;;;;;;;21.19;77.07;99165.65;109053;1258;71819;-74
2023/07/12 13:19:32;;;;;;;13.80;5.90;;;;;;;20.96;79.99;99173.66;108962;1259;66658;-72